sensor_id;sensor_type;location;lat;lon;timestamp;temperature;humidity
8595;DHT22;4335;48.860;9.198;2023-08-24T00:00:45;22.60;99.90
8595;DHT22;4335;48.860;9.198;2023-08-24T00:03:12;22.50;99.90
8595;DHT22;4335;48.860;9.198;2023-08-24T00:05:40;22.50;99.90
8595;DHT22;4335;48.860;9.198;2023-08-24T00:08:14;22.50;99.90
8595;DHT22;4335;48.860;9.198;2023-08-24T00:10:49;22.40;99.90
8595;DHT22;4335;48.860;9.198;2023-08-24T00:13:20;22.40;99.90
8595;DHT22;4335;48.860;9.198;2023-08-24T00:15:50;22.40;99.90
8595;DHT22;4335;48.860;9.198;2023-08-24T00:18:18;22.40;99.90
8595;DHT22;4335;48.860;9.198;2023-08-24T00:20:47;22.30;99.90
8595;DHT22;4335;48.860;9.198;2023-08-24T00:23:18;22.20;99.90
8595;DHT22;4335;48.860;9.198;2023-08-24T00:25:45;22.20;99.90
8595;DHT22;4335;48.860;9.198;2023-08-24T00:28:14;22.10;99.90
8595;DHT22;4335;48.860;9.198;2023-08-24T00:30:47;22.10;99.90
8595;DHT22;4335;48.860;9.198;2023-08-24T00:33:18;22.10;99.90
8595;DHT22;4335;48.860;9.198;2023-08-24T00:35:48;22.10;99.90
8595;DHT22;4335;48.860;9.198;2023-08-24T00:38:16;22.10;99.90
8595;DHT22;4335;48.860;9.198;2023-08-24T00:40:46;22.10;99.90
8595;DHT22;4335;48.860;9.198;2023-08-24T00:43:15;22.10;99.90
8595;DHT22;4335;48.860;9.198;2023-08-24T00:45:46;22.00;99.90
8595;DHT22;4335;48.860;9.198;2023-08-24T00:48:16;22.00;99.90
8595;DHT22;4335;48.860;9.198;2023-08-24T00:50:44;22.00;99.90
8595;DHT22;4335;48.860;9.198;2023-08-24T00:53:17;22.00;99.90
8595;DHT22;4335;48.860;9.198;2023-08-24T00:55:48;21.90;99.90
8595;DHT22;4335;48.860;9.198;2023-08-24T00:58:17;21.90;99.90
8595;DHT22;4335;48.860;9.198;2023-08-24T01:00:48;21.80;99.90
8595;DHT22;4335;48.860;9.198;2023-08-24T01:03:16;21.80;99.90
8595;DHT22;4335;48.860;9.198;2023-08-24T01:05:44;21.80;99.90
8595;DHT22;4335;48.860;9.198;2023-08-24T01:08:17;21.80;99.90
8595;DHT22;4335;48.860;9.198;2023-08-24T01:10:54;21.80;99.90
8595;DHT22;4335;48.860;9.198;2023-08-24T01:13:34;21.80;99.90
8595;DHT22;4335;48.860;9.198;2023-08-24T01:16:11;21.70;99.90
8595;DHT22;4335;48.860;9.198;2023-08-24T01:18:41;21.70;99.90
8595;DHT22;4335;48.860;9.198;2023-08-24T01:21:10;21.70;99.90
8595;DHT22;4335;48.860;9.198;2023-08-24T01:23:53;21.70;99.90
8595;DHT22;4335;48.860;9.198;2023-08-24T01:26:22;21.60;99.90
8595;DHT22;4335;48.860;9.198;2023-08-24T01:28:50;21.60;99.90
8595;DHT22;4335;48.860;9.198;2023-08-24T01:31:20;21.60;99.90
8595;DHT22;4335;48.860;9.198;2023-08-24T01:33:47;21.60;99.90
8595;DHT22;4335;48.860;9.198;2023-08-24T01:36:15;21.50;99.90
8595;DHT22;4335;48.860;9.198;2023-08-24T01:38:45;21.50;99.90
8595;DHT22;4335;48.860;9.198;2023-08-24T01:41:19;21.50;99.90
8595;DHT22;4335;48.860;9.198;2023-08-24T01:43:54;21.40;99.90
8595;DHT22;4335;48.860;9.198;2023-08-24T01:46:25;21.40;99.90
8595;DHT22;4335;48.860;9.198;2023-08-24T01:48:55;21.30;99.90
8595;DHT22;4335;48.860;9.198;2023-08-24T01:51:24;21.30;99.90
8595;DHT22;4335;48.860;9.198;2023-08-24T01:53:55;21.30;99.90
8595;DHT22;4335;48.860;9.198;2023-08-24T01:56:23;21.40;99.90
8595;DHT22;4335;48.860;9.198;2023-08-24T01:58:54;21.30;99.90
8595;DHT22;4335;48.860;9.198;2023-08-24T02:01:23;21.30;99.90
8595;DHT22;4335;48.860;9.198;2023-08-24T02:04:02;21.30;99.90
8595;DHT22;4335;48.860;9.198;2023-08-24T02:06:33;21.30;99.90
8595;DHT22;4335;48.860;9.198;2023-08-24T02:09:00;21.40;99.90
8595;DHT22;4335;48.860;9.198;2023-08-24T02:11:49;21.30;99.90
8595;DHT22;4335;48.860;9.198;2023-08-24T02:14:18;21.30;99.90
8595;DHT22;4335;48.860;9.198;2023-08-24T02:16:51;21.30;99.90
8595;DHT22;4335;48.860;9.198;2023-08-24T02:19:22;21.30;99.90
8595;DHT22;4335;48.860;9.198;2023-08-24T02:21:52;21.30;99.90
8595;DHT22;4335;48.860;9.198;2023-08-24T02:24:20;21.30;99.90
8595;DHT22;4335;48.860;9.198;2023-08-24T02:26:47;21.30;99.90
8595;DHT22;4335;48.860;9.198;2023-08-24T02:29:17;21.30;99.90
8595;DHT22;4335;48.860;9.198;2023-08-24T02:31:48;21.30;99.90
8595;DHT22;4335;48.860;9.198;2023-08-24T02:34:16;21.20;99.90
8595;DHT22;4335;48.860;9.198;2023-08-24T02:36:46;21.20;99.90
8595;DHT22;4335;48.860;9.198;2023-08-24T02:39:23;21.20;99.90
8595;DHT22;4335;48.860;9.198;2023-08-24T02:41:51;21.20;99.90
8595;DHT22;4335;48.860;9.198;2023-08-24T02:44:18;21.10;99.90
8595;DHT22;4335;48.860;9.198;2023-08-24T02:46:50;21.20;99.90
8595;DHT22;4335;48.860;9.198;2023-08-24T02:49:23;21.20;99.90
8595;DHT22;4335;48.860;9.198;2023-08-24T02:51:50;21.20;99.90
8595;DHT22;4335;48.860;9.198;2023-08-24T02:54:24;21.20;99.90
8595;DHT22;4335;48.860;9.198;2023-08-24T02:57:10;21.20;99.90
8595;DHT22;4335;48.860;9.198;2023-08-24T02:59:40;21.20;99.90
8595;DHT22;4335;48.860;9.198;2023-08-24T03:02:16;21.20;99.90
8595;DHT22;4335;48.860;9.198;2023-08-24T03:04:50;21.20;99.90
8595;DHT22;4335;48.860;9.198;2023-08-24T03:07:27;21.10;99.90
8595;DHT22;4335;48.860;9.198;2023-08-24T03:09:58;21.10;99.90
8595;DHT22;4335;48.860;9.198;2023-08-24T03:12:25;21.10;99.90
8595;DHT22;4335;48.860;9.198;2023-08-24T03:14:55;21.10;99.90
8595;DHT22;4335;48.860;9.198;2023-08-24T03:17:30;21.10;99.90
8595;DHT22;4335;48.860;9.198;2023-08-24T03:19:57;21.10;99.90
8595;DHT22;4335;48.860;9.198;2023-08-24T03:22:24;21.10;99.90
8595;DHT22;4335;48.860;9.198;2023-08-24T03:24:52;21.10;99.90
8595;DHT22;4335;48.860;9.198;2023-08-24T03:27:22;21.10;99.90
8595;DHT22;4335;48.860;9.198;2023-08-24T03:29:53;21.10;99.90
8595;DHT22;4335;48.860;9.198;2023-08-24T03:32:22;21.10;99.90
8595;DHT22;4335;48.860;9.198;2023-08-24T03:34:50;21.10;99.90
8595;DHT22;4335;48.860;9.198;2023-08-24T03:37:19;21.00;99.90
8595;DHT22;4335;48.860;9.198;2023-08-24T03:39:49;21.00;99.90
8595;DHT22;4335;48.860;9.198;2023-08-24T03:42:17;21.10;99.90
8595;DHT22;4335;48.860;9.198;2023-08-24T03:44:50;21.10;99.90
8595;DHT22;4335;48.860;9.198;2023-08-24T03:47:17;21.10;99.90
8595;DHT22;4335;48.860;9.198;2023-08-24T03:49:45;21.00;99.90
8595;DHT22;4335;48.860;9.198;2023-08-24T03:52:13;21.00;99.90
8595;DHT22;4335;48.860;9.198;2023-08-24T03:54:41;21.00;99.90
8595;DHT22;4335;48.860;9.198;2023-08-24T03:57:11;21.00;99.90
8595;DHT22;4335;48.860;9.198;2023-08-24T03:59:39;21.00;99.90
8595;DHT22;4335;48.860;9.198;2023-08-24T04:02:06;21.00;99.90
8595;DHT22;4335;48.860;9.198;2023-08-24T04:04:34;21.00;99.90
8595;DHT22;4335;48.860;9.198;2023-08-24T04:07:01;21.00;99.90
8595;DHT22;4335;48.860;9.198;2023-08-24T04:09:30;21.00;99.90
8595;DHT22;4335;48.860;9.198;2023-08-24T04:11:57;21.00;99.90
8595;DHT22;4335;48.860;9.198;2023-08-24T04:14:25;21.00;99.90
8595;DHT22;4335;48.860;9.198;2023-08-24T04:16:52;21.10;99.90
8595;DHT22;4335;48.860;9.198;2023-08-24T04:19:23;21.10;99.90
8595;DHT22;4335;48.860;9.198;2023-08-24T04:21:53;21.10;99.90
8595;DHT22;4335;48.860;9.198;2023-08-24T04:24:20;21.20;99.90
8595;DHT22;4335;48.860;9.198;2023-08-24T04:26:49;21.10;99.90
8595;DHT22;4335;48.860;9.198;2023-08-24T04:29:23;21.10;99.90
8595;DHT22;4335;48.860;9.198;2023-08-24T04:31:59;21.10;99.90
8595;DHT22;4335;48.860;9.198;2023-08-24T04:34:27;21.10;99.90
8595;DHT22;4335;48.860;9.198;2023-08-24T04:36:54;21.10;99.90
8595;DHT22;4335;48.860;9.198;2023-08-24T04:39:36;21.10;99.90
8595;DHT22;4335;48.860;9.198;2023-08-24T04:42:05;21.10;99.90
8595;DHT22;4335;48.860;9.198;2023-08-24T04:44:39;21.10;99.90
8595;DHT22;4335;48.860;9.198;2023-08-24T04:47:15;21.10;99.90
8595;DHT22;4335;48.860;9.198;2023-08-24T04:49:49;20.90;99.90
8595;DHT22;4335;48.860;9.198;2023-08-24T04:52:16;20.80;99.90
8595;DHT22;4335;48.860;9.198;2023-08-24T04:54:47;20.80;99.90
8595;DHT22;4335;48.860;9.198;2023-08-24T04:57:17;20.80;99.90
8595;DHT22;4335;48.860;9.198;2023-08-24T04:59:44;20.70;99.90
8595;DHT22;4335;48.860;9.198;2023-08-24T05:02:14;20.70;99.90
8595;DHT22;4335;48.860;9.198;2023-08-24T05:04:47;20.70;99.90
8595;DHT22;4335;48.860;9.198;2023-08-24T05:07:15;20.60;99.90
8595;DHT22;4335;48.860;9.198;2023-08-24T05:09:46;20.60;99.90
8595;DHT22;4335;48.860;9.198;2023-08-24T05:12:15;20.70;99.90
8595;DHT22;4335;48.860;9.198;2023-08-24T05:14:51;20.80;99.90
8595;DHT22;4335;48.860;9.198;2023-08-24T05:17:18;20.80;99.90
8595;DHT22;4335;48.860;9.198;2023-08-24T05:19:58;20.90;99.90
8595;DHT22;4335;48.860;9.198;2023-08-24T05:22:35;20.90;99.90
8595;DHT22;4335;48.860;9.198;2023-08-24T05:25:06;21.00;99.90
8595;DHT22;4335;48.860;9.198;2023-08-24T05:27:36;21.00;99.90
8595;DHT22;4335;48.860;9.198;2023-08-24T05:30:05;21.10;99.90
8595;DHT22;4335;48.860;9.198;2023-08-24T05:32:35;21.20;99.90
8595;DHT22;4335;48.860;9.198;2023-08-24T05:35:05;21.30;99.90
8595;DHT22;4335;48.860;9.198;2023-08-24T05:37:32;21.50;99.90
8595;DHT22;4335;48.860;9.198;2023-08-24T05:40:03;21.70;99.90
8595;DHT22;4335;48.860;9.198;2023-08-24T05:42:45;21.80;99.90
8595;DHT22;4335;48.860;9.198;2023-08-24T05:45:13;21.90;99.90
8595;DHT22;4335;48.860;9.198;2023-08-24T05:47:46;22.00;99.90
8595;DHT22;4335;48.860;9.198;2023-08-24T05:50:20;22.20;99.90
8595;DHT22;4335;48.860;9.198;2023-08-24T05:52:47;22.40;99.90
8595;DHT22;4335;48.860;9.198;2023-08-24T05:55:15;22.50;99.90
8595;DHT22;4335;48.860;9.198;2023-08-24T05:57:44;22.60;99.90
8595;DHT22;4335;48.860;9.198;2023-08-24T06:00:12;22.70;99.90
8595;DHT22;4335;48.860;9.198;2023-08-24T06:02:40;22.80;99.90
8595;DHT22;4335;48.860;9.198;2023-08-24T06:05:08;22.80;99.90
8595;DHT22;4335;48.860;9.198;2023-08-24T06:07:35;22.80;99.90
8595;DHT22;4335;48.860;9.198;2023-08-24T06:10:03;22.90;99.90
8595;DHT22;4335;48.860;9.198;2023-08-24T06:12:31;23.00;99.90
8595;DHT22;4335;48.860;9.198;2023-08-24T06:15:00;23.00;99.90
8595;DHT22;4335;48.860;9.198;2023-08-24T06:17:39;23.10;99.90
8595;DHT22;4335;48.860;9.198;2023-08-24T06:20:08;23.30;99.90
8595;DHT22;4335;48.860;9.198;2023-08-24T06:22:37;23.50;99.90
8595;DHT22;4335;48.860;9.198;2023-08-24T06:25:05;23.80;99.90
8595;DHT22;4335;48.860;9.198;2023-08-24T06:27:34;24.10;99.90
8595;DHT22;4335;48.860;9.198;2023-08-24T06:30:05;24.20;99.90
8595;DHT22;4335;48.860;9.198;2023-08-24T06:32:36;24.50;99.90
8595;DHT22;4335;48.860;9.198;2023-08-24T06:35:03;24.70;99.90
8595;DHT22;4335;48.860;9.198;2023-08-24T06:37:32;24.80;99.90
8595;DHT22;4335;48.860;9.198;2023-08-24T06:39:59;24.90;99.90
8595;DHT22;4335;48.860;9.198;2023-08-24T06:42:26;24.90;99.90
8595;DHT22;4335;48.860;9.198;2023-08-24T06:44:57;24.90;99.90
8595;DHT22;4335;48.860;9.198;2023-08-24T06:47:26;24.80;99.90
8595;DHT22;4335;48.860;9.198;2023-08-24T06:49:56;24.70;99.90
8595;DHT22;4335;48.860;9.198;2023-08-24T06:52:23;24.50;99.90
8595;DHT22;4335;48.860;9.198;2023-08-24T06:54:54;24.30;99.90
8595;DHT22;4335;48.860;9.198;2023-08-24T06:57:25;24.20;99.90
8595;DHT22;4335;48.860;9.198;2023-08-24T06:59:55;24.00;99.90
8595;DHT22;4335;48.860;9.198;2023-08-24T07:02:27;23.90;99.90
8595;DHT22;4335;48.860;9.198;2023-08-24T07:04:57;23.70;99.90
8595;DHT22;4335;48.860;9.198;2023-08-24T07:07:28;23.80;99.90
8595;DHT22;4335;48.860;9.198;2023-08-24T07:09:58;23.80;99.90
8595;DHT22;4335;48.860;9.198;2023-08-24T07:12:26;23.80;99.90
8595;DHT22;4335;48.860;9.198;2023-08-24T07:14:53;23.90;99.90
8595;DHT22;4335;48.860;9.198;2023-08-24T07:17:20;24.10;99.90
8595;DHT22;4335;48.860;9.198;2023-08-24T07:20:05;24.20;99.90
8595;DHT22;4335;48.860;9.198;2023-08-24T07:22:37;24.50;99.90
8595;DHT22;4335;48.860;9.198;2023-08-24T07:25:05;24.80;99.90
8595;DHT22;4335;48.860;9.198;2023-08-24T07:27:42;25.00;99.90
8595;DHT22;4335;48.860;9.198;2023-08-24T07:30:11;25.00;99.90
8595;DHT22;4335;48.860;9.198;2023-08-24T07:32:41;25.00;99.90
8595;DHT22;4335;48.860;9.198;2023-08-24T07:35:13;25.20;99.90
8595;DHT22;4335;48.860;9.198;2023-08-24T07:37:45;25.30;99.90
8595;DHT22;4335;48.860;9.198;2023-08-24T07:40:15;25.50;99.90
8595;DHT22;4335;48.860;9.198;2023-08-24T07:42:46;25.50;99.90
8595;DHT22;4335;48.860;9.198;2023-08-24T07:45:17;25.50;99.90
8595;DHT22;4335;48.860;9.198;2023-08-24T07:47:45;25.50;99.90
8595;DHT22;4335;48.860;9.198;2023-08-24T07:50:17;26.20;99.90
8595;DHT22;4335;48.860;9.198;2023-08-24T07:52:44;27.70;99.90
8595;DHT22;4335;48.860;9.198;2023-08-24T07:55:12;29.30;99.90
8595;DHT22;4335;48.860;9.198;2023-08-24T07:57:39;30.90;99.90
8595;DHT22;4335;48.860;9.198;2023-08-24T08:00:07;32.20;99.90
8595;DHT22;4335;48.860;9.198;2023-08-24T08:02:35;33.30;99.90
8595;DHT22;4335;48.860;9.198;2023-08-24T08:05:03;34.10;96.40
8595;DHT22;4335;48.860;9.198;2023-08-24T08:07:39;34.90;93.20
8595;DHT22;4335;48.860;9.198;2023-08-24T08:10:07;35.60;90.60
8595;DHT22;4335;48.860;9.198;2023-08-24T08:12:35;36.00;86.90
8595;DHT22;4335;48.860;9.198;2023-08-24T08:15:03;36.40;82.90
8595;DHT22;4335;48.860;9.198;2023-08-24T08:17:31;36.70;78.90
8595;DHT22;4335;48.860;9.198;2023-08-24T08:19:59;36.40;77.50
8595;DHT22;4335;48.860;9.198;2023-08-24T08:22:26;36.00;78.00
8595;DHT22;4335;48.860;9.198;2023-08-24T08:24:59;35.50;78.20
8595;DHT22;4335;48.860;9.198;2023-08-24T08:27:26;35.70;77.70
8595;DHT22;4335;48.860;9.198;2023-08-24T08:29:54;36.20;77.20
8595;DHT22;4335;48.860;9.198;2023-08-24T08:32:21;36.50;76.40
8595;DHT22;4335;48.860;9.198;2023-08-24T08:34:53;36.00;76.40
8595;DHT22;4335;48.860;9.198;2023-08-24T08:37:31;36.30;76.30
8595;DHT22;4335;48.860;9.198;2023-08-24T08:40:04;36.30;75.80
8595;DHT22;4335;48.860;9.198;2023-08-24T08:42:38;36.10;76.00
8595;DHT22;4335;48.860;9.198;2023-08-24T08:45:10;36.10;76.30
8595;DHT22;4335;48.860;9.198;2023-08-24T08:47:38;35.50;77.40
8595;DHT22;4335;48.860;9.198;2023-08-24T08:50:09;35.60;77.70
8595;DHT22;4335;48.860;9.198;2023-08-24T08:52:36;36.10;76.80
8595;DHT22;4335;48.860;9.198;2023-08-24T08:55:06;36.30;75.30
8595;DHT22;4335;48.860;9.198;2023-08-24T08:57:36;37.20;73.40
8595;DHT22;4335;48.860;9.198;2023-08-24T09:00:10;38.00;70.60
8595;DHT22;4335;48.860;9.198;2023-08-24T09:02:42;38.80;68.30
8595;DHT22;4335;48.860;9.198;2023-08-24T09:05:14;39.50;66.10
8595;DHT22;4335;48.860;9.198;2023-08-24T09:07:51;39.40;63.30
8595;DHT22;4335;48.860;9.198;2023-08-24T09:10:23;40.10;61.80
8595;DHT22;4335;48.860;9.198;2023-08-24T09:12:50;40.60;60.20
8595;DHT22;4335;48.860;9.198;2023-08-24T09:15:27;40.80;58.90
8595;DHT22;4335;48.860;9.198;2023-08-24T09:18:00;40.60;57.90
8595;DHT22;4335;48.860;9.198;2023-08-24T09:20:28;41.10;57.60
8595;DHT22;4335;48.860;9.198;2023-08-24T09:22:59;41.30;55.70
8595;DHT22;4335;48.860;9.198;2023-08-24T09:25:31;41.70;54.90
8595;DHT22;4335;48.860;9.198;2023-08-24T09:27:58;41.70;54.70
8595;DHT22;4335;48.860;9.198;2023-08-24T09:30:33;41.60;54.30
8595;DHT22;4335;48.860;9.198;2023-08-24T09:33:02;42.60;53.40
8595;DHT22;4335;48.860;9.198;2023-08-24T09:35:35;42.50;52.90
8595;DHT22;4335;48.860;9.198;2023-08-24T09:38:16;42.10;52.40
8595;DHT22;4335;48.860;9.198;2023-08-24T09:40:46;42.20;52.20
8595;DHT22;4335;48.860;9.198;2023-08-24T09:43:21;41.90;52.40
8595;DHT22;4335;48.860;9.198;2023-08-24T09:45:52;42.30;51.80
8595;DHT22;4335;48.860;9.198;2023-08-24T09:48:21;42.80;51.70
8595;DHT22;4335;48.860;9.198;2023-08-24T09:50:52;43.30;50.80
8595;DHT22;4335;48.860;9.198;2023-08-24T09:53:20;43.00;50.30
8595;DHT22;4335;48.860;9.198;2023-08-24T09:56:00;42.90;50.80
8595;DHT22;4335;48.860;9.198;2023-08-24T09:58:28;43.00;50.40
8595;DHT22;4335;48.860;9.198;2023-08-24T10:00:56;43.10;50.10
8595;DHT22;4335;48.860;9.198;2023-08-24T10:03:26;43.40;49.60
8595;DHT22;4335;48.860;9.198;2023-08-24T10:05:56;43.00;49.70
8595;DHT22;4335;48.860;9.198;2023-08-24T10:08:42;42.80;49.90
8595;DHT22;4335;48.860;9.198;2023-08-24T10:11:19;43.30;49.50
8595;DHT22;4335;48.860;9.198;2023-08-24T10:13:52;43.50;49.10
8595;DHT22;4335;48.860;9.198;2023-08-24T10:16:24;43.80;48.60
8595;DHT22;4335;48.860;9.198;2023-08-24T10:18:54;43.80;48.40
8595;DHT22;4335;48.860;9.198;2023-08-24T10:21:28;44.40;48.20
8595;DHT22;4335;48.860;9.198;2023-08-24T10:24:02;44.10;47.80
8595;DHT22;4335;48.860;9.198;2023-08-24T10:26:34;44.00;47.60
8595;DHT22;4335;48.860;9.198;2023-08-24T10:29:03;43.50;48.10
8595;DHT22;4335;48.860;9.198;2023-08-24T10:31:39;43.00;48.90
8595;DHT22;4335;48.860;9.198;2023-08-24T10:34:10;43.00;49.20
8595;DHT22;4335;48.860;9.198;2023-08-24T10:36:39;43.00;49.20
8595;DHT22;4335;48.860;9.198;2023-08-24T10:39:12;42.70;50.00
8595;DHT22;4335;48.860;9.198;2023-08-24T10:41:51;42.40;50.40
8595;DHT22;4335;48.860;9.198;2023-08-24T10:44:22;41.90;51.50
8595;DHT22;4335;48.860;9.198;2023-08-24T10:47:12;40.50;53.10
8595;DHT22;4335;48.860;9.198;2023-08-24T10:49:43;40.30;54.40
8595;DHT22;4335;48.860;9.198;2023-08-24T10:52:21;39.30;55.50
8595;DHT22;4335;48.860;9.198;2023-08-24T10:54:53;38.60;57.40
8595;DHT22;4335;48.860;9.198;2023-08-24T10:57:25;38.00;59.20
8595;DHT22;4335;48.860;9.198;2023-08-24T10:59:58;37.00;60.50
8595;DHT22;4335;48.860;9.198;2023-08-24T11:02:29;35.90;63.10
8595;DHT22;4335;48.860;9.198;2023-08-24T11:05:07;35.20;66.20
8595;DHT22;4335;48.860;9.198;2023-08-24T11:07:35;34.90;68.10
8595;DHT22;4335;48.860;9.198;2023-08-24T11:10:15;34.20;70.40
8595;DHT22;4335;48.860;9.198;2023-08-24T11:13:06;33.80;73.20
8595;DHT22;4335;48.860;9.198;2023-08-24T11:15:47;33.50;75.20
8595;DHT22;4335;48.860;9.198;2023-08-24T11:18:26;33.30;77.50
8595;DHT22;4335;48.860;9.198;2023-08-24T11:20:55;33.20;79.30
8595;DHT22;4335;48.860;9.198;2023-08-24T11:23:23;32.80;81.00
8595;DHT22;4335;48.860;9.198;2023-08-24T11:25:52;32.40;85.20
8595;DHT22;4335;48.860;9.198;2023-08-24T11:28:25;32.30;87.00
8595;DHT22;4335;48.860;9.198;2023-08-24T11:30:53;32.00;89.30
8595;DHT22;4335;48.860;9.198;2023-08-24T11:33:28;31.80;90.80
8595;DHT22;4335;48.860;9.198;2023-08-24T11:35:59;31.70;91.90
8595;DHT22;4335;48.860;9.198;2023-08-24T11:38:38;31.70;92.70
8595;DHT22;4335;48.860;9.198;2023-08-24T11:41:15;31.60;93.70
8595;DHT22;4335;48.860;9.198;2023-08-24T11:43:59;31.50;95.00
8595;DHT22;4335;48.860;9.198;2023-08-24T11:46:30;31.50;96.90
8595;DHT22;4335;48.860;9.198;2023-08-24T11:48:58;31.30;96.90
8595;DHT22;4335;48.860;9.198;2023-08-24T11:51:29;31.30;98.50
8595;DHT22;4335;48.860;9.198;2023-08-24T11:53:59;31.20;98.60
8595;DHT22;4335;48.860;9.198;2023-08-24T11:56:27;31.10;99.40
8595;DHT22;4335;48.860;9.198;2023-08-24T11:58:56;31.10;99.90
8595;DHT22;4335;48.860;9.198;2023-08-24T12:01:24;31.10;99.90
8595;DHT22;4335;48.860;9.198;2023-08-24T12:03:56;31.20;99.90
8595;DHT22;4335;48.860;9.198;2023-08-24T12:06:27;31.20;99.90
8595;DHT22;4335;48.860;9.198;2023-08-24T12:08:57;31.30;99.90
8595;DHT22;4335;48.860;9.198;2023-08-24T12:11:28;31.40;99.90
8595;DHT22;4335;48.860;9.198;2023-08-24T12:14:02;31.60;99.90
8595;DHT22;4335;48.860;9.198;2023-08-24T12:16:33;31.60;99.90
8595;DHT22;4335;48.860;9.198;2023-08-24T12:19:07;31.70;99.90
8595;DHT22;4335;48.860;9.198;2023-08-24T12:21:35;31.70;99.90
8595;DHT22;4335;48.860;9.198;2023-08-24T12:24:14;31.80;99.90
8595;DHT22;4335;48.860;9.198;2023-08-24T12:26:42;31.80;99.90
8595;DHT22;4335;48.860;9.198;2023-08-24T12:29:10;31.90;99.90
8595;DHT22;4335;48.860;9.198;2023-08-24T12:31:42;31.90;99.90
8595;DHT22;4335;48.860;9.198;2023-08-24T12:34:15;31.90;99.90
8595;DHT22;4335;48.860;9.198;2023-08-24T12:36:43;32.00;99.90
8595;DHT22;4335;48.860;9.198;2023-08-24T12:39:11;32.00;99.90
8595;DHT22;4335;48.860;9.198;2023-08-24T12:41:42;32.10;99.90
8595;DHT22;4335;48.860;9.198;2023-08-24T12:44:11;32.00;99.90
8595;DHT22;4335;48.860;9.198;2023-08-24T12:46:38;32.00;99.90
8595;DHT22;4335;48.860;9.198;2023-08-24T12:49:06;32.00;99.90
8595;DHT22;4335;48.860;9.198;2023-08-24T12:51:33;32.10;99.90
8595;DHT22;4335;48.860;9.198;2023-08-24T12:54:00;32.20;99.90
8595;DHT22;4335;48.860;9.198;2023-08-24T12:56:28;32.30;99.90
8595;DHT22;4335;48.860;9.198;2023-08-24T12:58:55;32.30;99.90
8595;DHT22;4335;48.860;9.198;2023-08-24T13:01:30;32.40;99.90
8595;DHT22;4335;48.860;9.198;2023-08-24T13:03:58;32.30;99.90
8595;DHT22;4335;48.860;9.198;2023-08-24T13:06:29;32.40;99.90
8595;DHT22;4335;48.860;9.198;2023-08-24T13:08:56;32.50;99.90
8595;DHT22;4335;48.860;9.198;2023-08-24T13:11:26;32.60;99.90
8595;DHT22;4335;48.860;9.198;2023-08-24T13:13:57;32.70;99.90
8595;DHT22;4335;48.860;9.198;2023-08-24T13:16:24;32.80;99.90
8595;DHT22;4335;48.860;9.198;2023-08-24T13:18:55;33.00;99.90
8595;DHT22;4335;48.860;9.198;2023-08-24T13:21:34;33.10;99.90
8595;DHT22;4335;48.860;9.198;2023-08-24T13:24:02;33.30;99.90
8595;DHT22;4335;48.860;9.198;2023-08-24T13:26:29;33.50;99.50
8595;DHT22;4335;48.860;9.198;2023-08-24T13:28:57;33.50;99.60
8595;DHT22;4335;48.860;9.198;2023-08-24T13:31:27;33.60;99.70
8595;DHT22;4335;48.860;9.198;2023-08-24T13:33:57;33.60;99.90
8595;DHT22;4335;48.860;9.198;2023-08-24T13:36:27;33.60;99.80
8595;DHT22;4335;48.860;9.198;2023-08-24T13:38:54;33.60;99.30
8595;DHT22;4335;48.860;9.198;2023-08-24T13:41:22;33.60;98.50
8595;DHT22;4335;48.860;9.198;2023-08-24T13:43:55;33.60;97.70
8595;DHT22;4335;48.860;9.198;2023-08-24T13:46:26;33.60;96.80
8595;DHT22;4335;48.860;9.198;2023-08-24T13:48:53;33.60;96.20
8595;DHT22;4335;48.860;9.198;2023-08-24T13:51:25;33.50;96.50
8595;DHT22;4335;48.860;9.198;2023-08-24T13:53:52;33.50;97.10
8595;DHT22;4335;48.860;9.198;2023-08-24T13:56:26;33.50;96.80
8595;DHT22;4335;48.860;9.198;2023-08-24T13:58:56;33.50;96.80
8595;DHT22;4335;48.860;9.198;2023-08-24T14:01:23;33.50;96.30
8595;DHT22;4335;48.860;9.198;2023-08-24T14:03:51;33.50;95.90
8595;DHT22;4335;48.860;9.198;2023-08-24T14:06:18;33.40;95.70
8595;DHT22;4335;48.860;9.198;2023-08-24T14:08:49;33.50;95.60
8595;DHT22;4335;48.860;9.198;2023-08-24T14:11:20;33.50;95.70
8595;DHT22;4335;48.860;9.198;2023-08-24T14:13:50;33.50;95.60
8595;DHT22;4335;48.860;9.198;2023-08-24T14:16:18;33.50;95.30
8595;DHT22;4335;48.860;9.198;2023-08-24T14:18:48;33.50;95.20
8595;DHT22;4335;48.860;9.198;2023-08-24T14:21:16;33.50;95.20
8595;DHT22;4335;48.860;9.198;2023-08-24T14:23:48;33.50;95.30
8595;DHT22;4335;48.860;9.198;2023-08-24T14:26:18;33.50;94.90
8595;DHT22;4335;48.860;9.198;2023-08-24T14:28:50;33.50;94.60
8595;DHT22;4335;48.860;9.198;2023-08-24T14:31:19;33.50;94.20
8595;DHT22;4335;48.860;9.198;2023-08-24T14:33:50;33.50;93.50
8595;DHT22;4335;48.860;9.198;2023-08-24T14:36:18;33.40;93.30
8595;DHT22;4335;48.860;9.198;2023-08-24T14:38:47;33.50;93.10
8595;DHT22;4335;48.860;9.198;2023-08-24T14:41:15;33.40;93.10
8595;DHT22;4335;48.860;9.198;2023-08-24T14:43:49;33.30;93.10
8595;DHT22;4335;48.860;9.198;2023-08-24T14:46:16;33.20;93.20
8595;DHT22;4335;48.860;9.198;2023-08-24T14:48:44;33.00;93.20
8595;DHT22;4335;48.860;9.198;2023-08-24T14:51:11;33.00;93.60
8595;DHT22;4335;48.860;9.198;2023-08-24T14:53:49;32.90;94.40
8595;DHT22;4335;48.860;9.198;2023-08-24T14:56:17;32.80;95.20
8595;DHT22;4335;48.860;9.198;2023-08-24T14:58:44;32.60;95.60
8595;DHT22;4335;48.860;9.198;2023-08-24T15:01:11;32.50;96.00
8595;DHT22;4335;48.860;9.198;2023-08-24T15:03:39;32.40;98.30
8595;DHT22;4335;48.860;9.198;2023-08-24T15:06:10;31.40;99.90
8595;DHT22;4335;48.860;9.198;2023-08-24T15:08:40;29.80;99.90
8595;DHT22;4335;48.860;9.198;2023-08-24T15:11:14;28.30;99.90
8595;DHT22;4335;48.860;9.198;2023-08-24T15:13:42;26.90;99.90
8595;DHT22;4335;48.860;9.198;2023-08-24T15:16:19;26.20;99.90
8595;DHT22;4335;48.860;9.198;2023-08-24T15:18:46;25.90;99.90
8595;DHT22;4335;48.860;9.198;2023-08-24T15:21:16;25.80;99.90
8595;DHT22;4335;48.860;9.198;2023-08-24T15:23:45;25.70;99.90
8595;DHT22;4335;48.860;9.198;2023-08-24T15:26:14;25.60;99.90
8595;DHT22;4335;48.860;9.198;2023-08-24T15:29:15;25.20;99.90
8595;DHT22;4335;48.860;9.198;2023-08-24T15:31:43;24.90;99.90
8595;DHT22;4335;48.860;9.198;2023-08-24T15:34:14;24.90;99.90
8595;DHT22;4335;48.860;9.198;2023-08-24T15:36:43;24.80;99.90
8595;DHT22;4335;48.860;9.198;2023-08-24T15:39:10;24.60;99.90
8595;DHT22;4335;48.860;9.198;2023-08-24T15:41:39;24.40;99.90
8595;DHT22;4335;48.860;9.198;2023-08-24T15:44:09;24.50;99.90
8595;DHT22;4335;48.860;9.198;2023-08-24T15:46:37;24.30;99.90
8595;DHT22;4335;48.860;9.198;2023-08-24T15:49:04;24.20;99.90
8595;DHT22;4335;48.860;9.198;2023-08-24T15:51:35;24.00;99.90
8595;DHT22;4335;48.860;9.198;2023-08-24T15:54:02;24.00;99.90
8595;DHT22;4335;48.860;9.198;2023-08-24T15:56:30;23.80;99.90
8595;DHT22;4335;48.860;9.198;2023-08-24T15:58:58;23.70;99.90
8595;DHT22;4335;48.860;9.198;2023-08-24T16:01:26;23.60;99.90
8595;DHT22;4335;48.860;9.198;2023-08-24T16:03:59;23.60;99.90
8595;DHT22;4335;48.860;9.198;2023-08-24T16:06:33;23.60;99.90
8595;DHT22;4335;48.860;9.198;2023-08-24T16:09:00;23.50;99.90
8595;DHT22;4335;48.860;9.198;2023-08-24T16:11:29;23.50;99.90
8595;DHT22;4335;48.860;9.198;2023-08-24T16:14:07;23.40;99.90
8595;DHT22;4335;48.860;9.198;2023-08-24T16:16:37;23.50;99.90
8595;DHT22;4335;48.860;9.198;2023-08-24T16:19:07;23.50;99.90
8595;DHT22;4335;48.860;9.198;2023-08-24T16:21:34;23.50;99.90
8595;DHT22;4335;48.860;9.198;2023-08-24T16:24:04;23.50;99.90